Time;durP1;ratioP1;P1;durP2;ratioP2;P2;SDS_P1;SDS_P2;PMS_P1;PMS_P2;Temp;Humidity;BMP_temperature;BMP_pressure;BME280_temperature;BME280_humidity;BME280_pressure;Samples;Min_cycle;Max_cycle;Signal;HPM_P1;HPM_P2
2023/05/19 00:00:53;;;;;;;9.30;8.00;;;;;;;13.84;100.00;97632.83;110159;1243;71432;-72
2023/05/19 00:03:25;;;;;;;8.60;7.70;;;;;;;13.82;100.00;97634.85;110221;1246;69801;-72
2023/05/19 00:05:57;;;;;;;9.00;7.90;;;;;;;13.81;100.00;97631.94;110193;1241;69232;-73
2023/05/19 00:08:31;;;;;;;10.50;9.40;;;;;;;13.80;100.00;97629.42;110200;1245;60129;-73
2023/05/19 00:11:01;;;;;;;10.60;7.90;;;;;;;13.77;100.00;97628.61;110270;1245;59626;-73
2023/05/19 00:13:32;;;;;;;9.20;8.30;;;;;;;13.75;100.00;97633.14;110184;1243;71682;-73
2023/05/19 00:16:05;;;;;;;9.70;8.00;;;;;;;13.72;100.00;97631.65;110207;1243;67723;-72
2023/05/19 00:18:39;;;;;;;10.80;7.90;;;;;;;13.70;100.00;97631.11;110226;1246;69584;-72
2023/05/19 00:21:11;;;;;;;9.50;7.90;;;;;;;13.69;100.00;97628.04;110213;1245;59756;-73
2023/05/19 00:23:42;;;;;;;10.30;8.40;;;;;;;13.68;100.00;97632.81;110205;1245;59698;-72
2023/05/19 00:26:15;;;;;;;9.90;8.10;;;;;;;13.69;100.00;97637.69;110188;1245;70617;-73
2023/05/19 00:28:53;;;;;;;10.00;8.90;;;;;;;13.68;100.00;97632.46;110202;1243;69087;-72
2023/05/19 00:31:26;;;;;;;8.40;7.60;;;;;;;13.62;100.00;97642.46;110143;1247;67585;-71
2023/05/19 00:33:59;;;;;;;8.80;7.80;;;;;;;13.58;100.00;97643.33;110119;1245;59687;-71
2023/05/19 00:36:30;;;;;;;9.40;7.60;;;;;;;13.55;100.00;97648.45;110192;1245;59637;-71
2023/05/19 00:39:01;;;;;;;10.70;8.10;;;;;;;13.52;100.00;97648.01;110179;1245;71401;-70
2023/05/19 00:41:31;;;;;;;;;;;;;;;13.50;100.00;97646.77;110187;1244;69280;-71
2023/05/19 00:44:02;;;;;;;9.40;7.20;;;;;;;13.46;100.00;97645.64;110172;1247;69869;-72
2023/05/19 00:46:36;;;;;;;8.90;7.20;;;;;;;13.44;100.00;97648.06;110127;1245;60124;-71
2023/05/19 00:49:08;;;;;;;8.70;7.40;;;;;;;13.42;100.00;97647.06;110185;1243;59737;-71
2023/05/19 00:51:40;;;;;;;9.60;7.40;;;;;;;13.39;100.00;97646.55;110193;1244;71398;-71
2023/05/19 00:54:10;;;;;;;8.30;7.40;;;;;;;13.38;100.00;97648.07;110211;1246;68578;-71
2023/05/19 00:56:43;;;;;;;10.50;8.20;;;;;;;13.36;100.00;97648.40;110131;1246;69095;-71
2023/05/19 00:59:16;;;;;;;9.80;8.40;;;;;;;13.35;100.00;97649.74;110175;1245;59737;-72
2023/05/19 01:01:50;;;;;;;9.10;7.90;;;;;;;13.33;100.00;97653.02;110149;1244;59667;-73
2023/05/19 01:04:24;;;;;;;8.30;7.40;;;;;;;13.30;100.00;97655.36;110184;1244;71432;-72
2023/05/19 01:06:56;;;;;;;9.00;7.50;;;;;;;13.28;100.00;97659.94;110219;1246;69385;-71
2023/05/19 01:09:27;;;;;;;10.00;8.50;;;;;;;13.27;100.00;97661.92;110166;1244;69414;-71
2023/05/19 01:12:00;;;;;;;10.40;8.40;;;;;;;13.26;100.00;97665.84;110150;1245;59663;-72
2023/05/19 01:14:31;;;;;;;9.80;8.50;;;;;;;13.24;100.00;97665.61;110109;1241;59811;-73
2023/05/19 01:17:14;;;;;;;11.00;9.00;;;;;;;13.23;100.00;97666.94;110171;1244;71428;-71
2023/05/19 01:19:56;;;;;;;9.80;8.20;;;;;;;13.21;100.00;97666.70;110211;1244;69679;-72
2023/05/19 01:22:41;;;;;;;9.40;7.50;;;;;;;13.19;100.00;97671.77;110172;1251;69273;-73
2023/05/19 01:25:24;;;;;;;9.10;7.70;;;;;;;13.15;100.00;97669.23;110098;1246;59751;-74
2023/05/19 01:28:15;;;;;;;9.40;7.80;;;;;;;13.12;100.00;97670.38;110146;1245;59686;-73
2023/05/19 01:30:54;;;;;;;8.70;7.50;;;;;;;13.10;100.00;97671.29;110136;1241;71318;-73
2023/05/19 01:33:30;;;;;;;9.50;7.00;;;;;;;13.05;100.00;97678.67;110139;1246;69247;-71
2023/05/19 01:36:06;;;;;;;10.10;7.60;;;;;;;13.01;100.00;97682.09;110132;1247;68534;-73
2023/05/19 01:38:46;;;;;;;12.80;9.40;;;;;;;12.99;100.00;97678.25;110105;1243;59724;-73
2023/05/19 01:41:20;;;;;;;10.30;8.60;;;;;;;12.95;100.00;97676.96;110127;1244;59633;-72
2023/05/19 01:43:53;;;;;;;10.20;8.40;;;;;;;12.92;100.00;97672.70;110132;1244;71394;-71
2023/05/19 01:46:25;;;;;;;10.20;7.60;;;;;;;12.86;100.00;97677.69;110088;1245;69035;-72
2023/05/19 01:49:01;;;;;;;9.60;8.30;;;;;;;12.81;100.00;97683.19;110119;1245;68530;-72
2023/05/19 01:51:39;;;;;;;9.40;8.20;;;;;;;12.75;100.00;97682.90;110130;1244;59804;-72
2023/05/19 01:54:12;;;;;;;9.60;8.60;;;;;;;12.70;100.00;97684.69;110150;1245;59740;-73
2023/05/19 01:57:25;;;;;;;8.80;7.70;;;;;;;12.65;100.00;97681.25;110168;1241;71218;-72
2023/05/19 02:00:04;;;;;;;;;;;;;;;12.56;100.00;97688.26;110126;1246;68427;-72
2023/05/19 02:02:53;;;;;;;10.80;8.50;;;;;;;12.49;100.00;97684.42;110148;1244;68511;-72
2023/05/19 02:05:51;;;;;;;10.80;8.80;;;;;;;12.42;100.00;97687.35;110103;1245;59667;-72
2023/05/19 02:08:41;;;;;;;10.70;8.50;;;;;;;12.35;100.00;97689.83;110118;1245;59711;-72
2023/05/19 02:11:36;;;;;;;12.20;9.60;;;;;;;12.28;100.00;97697.36;110132;1241;70621;-72
2023/05/19 02:14:20;;;;;;;13.00;9.80;;;;;;;12.20;100.00;97700.00;110187;1241;69199;-73
2023/05/19 02:16:53;;;;;;;11.60;9.70;;;;;;;12.14;100.00;97699.98;110179;1245;69956;-73
2023/05/19 02:19:32;;;;;;;9.40;7.60;;;;;;;12.08;100.00;97700.04;110183;1246;59679;-72
2023/05/19 02:22:03;;;;;;;12.60;9.90;;;;;;;12.04;100.00;97700.36;110179;1245;59679;-71
2023/05/19 02:24:36;;;;;;;13.80;10.00;;;;;;;12.00;100.00;97701.20;110214;1245;71603;-71
2023/05/19 02:27:09;;;;;;;12.30;10.10;;;;;;;11.94;100.00;97707.35;110172;1242;69374;-73
2023/05/19 02:29:43;;;;;;;11.20;9.40;;;;;;;11.89;100.00;97707.38;110148;1251;69321;-73
2023/05/19 02:32:20;;;;;;;13.00;9.80;;;;;;;11.86;100.00;97708.70;110099;1245;59763;-71
2023/05/19 02:34:52;;;;;;;11.30;8.90;;;;;;;11.81;100.00;97711.13;110147;1245;59747;-73
2023/05/19 02:37:27;;;;;;;8.80;7.50;;;;;;;11.79;100.00;97712.14;110159;1241;71292;-72
2023/05/19 02:40:01;;;;;;;12.30;8.40;;;;;;;11.79;100.00;97712.86;110156;1245;69466;-72
2023/05/19 02:42:32;;;;;;;11.00;8.80;;;;;;;11.76;100.00;97711.82;110157;1246;68544;-73
2023/05/19 02:45:02;;;;;;;11.70;9.10;;;;;;;11.73;100.00;97711.83;110150;1251;59666;-73
2023/05/19 02:47:34;;;;;;;10.40;8.70;;;;;;;11.70;100.00;97718.70;110127;1246;59703;-73
2023/05/19 02:50:06;;;;;;;10.80;8.30;;;;;;;11.67;100.00;97721.57;110133;1245;71278;-72
2023/05/19 02:52:36;;;;;;;14.20;11.60;;;;;;;11.63;100.00;97722.88;110109;1245;68459;-73
2023/05/19 02:55:08;;;;;;;14.90;11.00;;;;;;;11.60;100.00;97718.03;110131;1244;68633;-71
2023/05/19 02:57:37;;;;;;;10.60;8.70;;;;;;;11.56;100.00;97720.42;110103;1243;60084;-72
2023/05/19 03:00:08;;;;;;;10.40;8.70;;;;;;;11.53;100.00;97718.56;110154;1242;59750;-74
2023/05/19 03:02:40;;;;;;;10.90;9.40;;;;;;;11.49;100.00;97713.06;110102;1245;70581;-71
2023/05/19 03:05:13;;;;;;;13.10;10.20;;;;;;;11.45;100.00;97715.45;110105;1244;67744;-72
2023/05/19 03:07:44;;;;;;;14.40;11.50;;;;;;;11.41;100.00;97717.30;110148;1244;69207;-72
2023/05/19 03:10:15;;;;;;;12.60;9.90;;;;;;;11.39;100.00;97721.08;110121;1244;59739;-73
2023/05/19 03:12:46;;;;;;;10.90;9.50;;;;;;;11.38;100.00;97723.23;110131;1246;60182;-73
2023/05/19 03:15:18;;;;;;;;;;;;;;;11.39;100.00;97720.90;110229;1242;71276;-72
2023/05/19 03:17:53;;;;;;;13.00;9.30;;;;;;;11.39;100.00;97725.69;110189;1245;68400;-72
2023/05/19 03:20:24;;;;;;;13.70;10.30;;;;;;;11.39;100.00;97727.02;110142;1241;68315;-72
2023/05/19 03:22:57;;;;;;;13.90;9.70;;;;;;;11.41;100.00;97723.77;110128;1245;59692;-72
2023/05/19 03:25:28;;;;;;;13.80;10.20;;;;;;;11.43;100.00;97726.38;110148;1245;59675;-71
2023/05/19 03:27:58;;;;;;;13.20;10.50;;;;;;;11.46;100.00;97727.95;110144;1241;71526;-72
2023/05/19 03:30:28;;;;;;;17.70;12.70;;;;;;;11.50;100.00;97730.27;110140;1246;69284;-71
2023/05/19 03:33:05;;;;;;;15.70;11.70;;;;;;;11.51;100.00;97735.95;110077;1245;69666;-73
2023/05/19 03:35:37;;;;;;;15.00;12.00;;;;;;;11.53;100.00;97736.70;110161;1245;59743;-73
2023/05/19 03:38:08;;;;;;;13.40;11.00;;;;;;;11.54;100.00;97740.85;110154;1245;59688;-73
2023/05/19 03:40:40;;;;;;;14.00;10.50;;;;;;;11.55;100.00;97743.16;110206;1243;71277;-73
2023/05/19 03:43:11;;;;;;;13.50;10.20;;;;;;;11.57;100.00;97746.73;110125;1251;69822;-73
2023/05/19 03:45:49;;;;;;;12.80;9.80;;;;;;;11.57;100.00;97747.39;110098;1243;67547;-73
2023/05/19 03:48:50;;;;;;;11.40;10.00;;;;;;;11.61;100.00;97745.19;110136;1245;59750;-73
2023/05/19 03:51:29;;;;;;;11.90;9.50;;;;;;;11.67;100.00;97744.02;110191;1241;59673;-73
2023/05/19 03:54:09;;;;;;;10.90;9.10;;;;;;;11.73;100.00;97743.61;110177;1246;71999;-73
2023/05/19 03:56:42;;;;;;;13.00;10.80;;;;;;;11.82;100.00;97747.04;110139;1245;69864;-72
2023/05/19 03:59:11;;;;;;;14.00;10.80;;;;;;;11.90;100.00;97753.26;110144;1241;67669;-72
2023/05/19 04:01:42;;;;;;;12.10;9.40;;;;;;;11.98;100.00;97753.73;110134;1245;59678;-71
2023/05/19 04:04:12;;;;;;;12.10;9.00;;;;;;;12.06;100.00;97754.92;110168;1246;59665;-71
2023/05/19 04:06:41;;;;;;;14.90;11.50;;;;;;;12.16;100.00;97755.87;110133;1241;71311;-73
2023/05/19 04:09:12;;;;;;;15.00;11.90;;;;;;;12.24;100.00;97767.00;110150;1247;69135;-73
2023/05/19 04:11:42;;;;;;;16.50;12.60;;;;;;;12.27;100.00;97770.64;110123;1242;68524;-72
2023/05/19 04:14:12;;;;;;;17.00;13.00;;;;;;;12.28;100.00;97779.52;110099;1245;59798;-73
2023/05/19 04:16:44;;;;;;;13.60;11.10;;;;;;;12.26;100.00;97784.54;110124;1243;59666;-73
2023/05/19 04:19:13;;;;;;;14.40;11.20;;;;;;;12.27;100.00;97786.00;110116;1244;72355;-73
2023/05/19 04:21:42;;;;;;;12.60;10.60;;;;;;;12.32;100.00;97781.86;110146;1245;68597;-73
2023/05/19 04:24:12;;;;;;;14.20;11.70;;;;;;;12.38;100.00;97778.27;110178;1242;68719;-71
2023/05/19 04:26:44;;;;;;;14.60;10.50;;;;;;;12.44;100.00;97768.65;110203;1244;59725;-71
2023/05/19 04:29:16;;;;;;;14.70;11.90;;;;;;;12.54;100.00;97763.05;110128;1244;59694;-72
2023/05/19 04:31:46;;;;;;;14.60;10.70;;;;;;;12.63;100.00;97763.77;110140;1244;70679;-72
2023/05/19 04:34:18;;;;;;;11.40;9.70;;;;;;;12.74;100.00;97766.09;110147;1241;68716;-72
2023/05/19 04:36:49;;;;;;;13.40;10.10;;;;;;;12.85;100.00;97764.52;110104;1241;69098;-72
2023/05/19 04:39:21;;;;;;;13.60;10.90;;;;;;;12.98;100.00;97757.92;110075;1245;59670;-71
2023/05/19 04:41:52;;;;;;;13.90;10.50;;;;;;;13.10;100.00;97756.63;110169;1246;60129;-71
2023/05/19 04:44:22;;;;;;;14.20;11.20;;;;;;;13.23;100.00;97763.03;110139;1242;71316;-72
2023/05/19 04:46:53;;;;;;;12.80;10.20;;;;;;;13.33;100.00;97767.14;110155;1245;68090;-72
2023/05/19 04:49:23;;;;;;;11.60;10.30;;;;;;;13.46;100.00;97769.27;110122;1245;69837;-72
2023/05/19 04:51:55;;;;;;;11.50;9.80;;;;;;;13.56;100.00;97773.95;110180;1243;59667;-71
2023/05/19 04:54:27;;;;;;;12.10;10.30;;;;;;;13.63;100.00;97779.27;110192;1246;59694;-71
2023/05/19 04:56:56;;;;;;;13.70;10.90;;;;;;;13.70;100.00;97779.45;110123;1244;71991;-71
2023/05/19 04:59:26;;;;;;;;;;;;;;;13.68;100.00;97781.33;110139;1243;68754;-72
2023/05/19 05:01:56;;;;;;;11.20;9.90;;;;;;;13.78;100.00;97781.97;110133;1243;68422;-72
2023/05/19 05:04:27;;;;;;;11.40;9.70;;;;;;;13.92;100.00;97780.80;110171;1244;59751;-72
2023/05/19 05:06:57;;;;;;;13.00;10.10;;;;;;;14.04;100.00;97785.50;110085;1244;59697;-70
2023/05/19 05:09:29;;;;;;;13.30;10.10;;;;;;;14.07;100.00;97791.23;110169;1244;70627;-73
2023/05/19 05:12:00;;;;;;;;;;;;;;;14.12;100.00;97794.97;110164;1241;69644;-71
2023/05/19 05:14:29;;;;;;;12.00;10.20;;;;;;;14.09;100.00;97793.64;110158;1242;69217;-70
2023/05/19 05:17:00;;;;;;;12.20;10.00;;;;;;;14.05;100.00;97789.08;110091;1244;59730;-71
2023/05/19 05:19:30;;;;;;;11.80;9.00;;;;;;;14.07;100.00;97791.52;110138;1244;59633;-72
2023/05/19 05:22:00;;;;;;;12.60;10.30;;;;;;;14.15;100.00;97795.94;110171;1244;71964;-71
2023/05/19 05:24:31;;;;;;;9.90;8.30;;;;;;;14.29;100.00;97793.41;110117;1244;69788;-71
2023/05/19 05:27:03;;;;;;;14.20;10.00;;;;;;;14.51;100.00;97795.67;110131;1244;68500;-71
2023/05/19 05:29:33;;;;;;;10.60;9.50;;;;;;;14.64;100.00;97794.08;110118;1244;59760;-70
2023/05/19 05:32:04;;;;;;;11.50;10.30;;;;;;;14.79;100.00;97800.17;110144;1244;59649;-71
2023/05/19 05:34:36;;;;;;;13.80;11.10;;;;;;;14.85;100.00;97800.92;110121;1241;72000;-72
2023/05/19 05:37:06;;;;;;;10.40;9.10;;;;;;;14.93;100.00;97797.59;110179;1244;69340;-72
2023/05/19 05:39:36;;;;;;;13.30;10.40;;;;;;;15.11;100.00;97799.38;110057;1243;68708;-72
2023/05/19 05:42:07;;;;;;;11.20;9.50;;;;;;;15.27;100.00;97797.16;110149;1245;60102;-72
2023/05/19 05:44:37;;;;;;;12.60;11.00;;;;;;;15.45;100.00;97798.94;110107;1244;59702;-73
2023/05/19 05:47:07;;;;;;;11.10;8.60;;;;;;;15.68;100.00;97803.32;110115;1245;71234;-71
2023/05/19 05:49:37;;;;;;;10.90;8.60;;;;;;;15.85;100.00;97805.50;110165;1244;69187;-71
2023/05/19 05:52:09;;;;;;;11.80;9.80;;;;;;;16.09;100.00;97807.61;110097;1245;69271;-71
2023/05/19 05:54:43;;;;;;;10.40;9.30;;;;;;;16.32;100.00;97809.41;110099;1245;59749;-70
2023/05/19 05:57:14;;;;;;;10.30;8.80;;;;;;;16.40;100.00;97810.48;110114;1244;59697;-72
2023/05/19 05:59:45;;;;;;;10.10;7.40;;;;;;;16.48;99.84;97810.41;110158;1244;71949;-72
2023/05/19 06:02:16;;;;;;;12.80;11.10;;;;;;;16.47;99.54;97810.50;110114;1244;69771;-71
2023/05/19 06:04:46;;;;;;;12.10;10.80;;;;;;;16.57;99.14;97814.36;110115;1241;68381;-71
2023/05/19 06:07:15;;;;;;;12.20;10.90;;;;;;;16.40;98.98;97814.98;110137;1245;59705;-71
2023/05/19 06:09:45;;;;;;;12.20;10.60;;;;;;;16.30;99.43;97817.98;110232;1241;59741;-72
2023/05/19 06:12:15;;;;;;;13.90;11.40;;;;;;;16.46;98.50;97818.00;110173;1244;71435;-71
2023/05/19 06:14:47;;;;;;;10.40;9.30;;;;;;;16.50;96.90;97812.52;110176;1244;69605;-71
2023/05/19 06:17:26;;;;;;;11.50;9.60;;;;;;;16.90;95.21;97811.39;110182;1244;68446;-70
2023/05/19 06:19:58;;;;;;;8.70;7.70;;;;;;;17.23;93.61;97815.31;110165;1244;59698;-71
2023/05/19 06:22:27;;;;;;;;;;;;;;;17.33;92.12;97818.14;110190;1244;59670;-71
2023/05/19 06:24:57;;;;;;;12.70;9.10;;;;;;;17.46;92.78;97814.42;110207;1241;72039;-72
2023/05/19 06:27:26;;;;;;;8.50;7.40;;;;;;;17.57;91.20;97817.60;110247;1241;69278;-71
2023/05/19 06:29:56;;;;;;;11.20;10.00;;;;;;;17.87;89.44;97821.08;110281;1242;69277;-72
2023/05/19 06:32:25;;;;;;;10.80;8.80;;;;;;;18.06;87.95;97824.70;110206;1242;59700;-73
2023/05/19 06:34:54;;;;;;;9.80;8.30;;;;;;;18.01;88.58;97828.91;110236;1241;59734;-72
2023/05/19 06:37:25;;;;;;;9.00;7.90;;;;;;;18.07;89.00;97827.89;110260;1243;69793;-72
2023/05/19 06:39:55;;;;;;;11.90;9.60;;;;;;;18.29;86.90;97835.70;110170;1243;69272;-72
2023/05/19 06:42:25;;;;;;;10.60;9.50;;;;;;;18.59;85.36;97838.58;110251;1249;69291;-73
2023/05/19 06:45:07;;;;;;;11.80;9.50;;;;;;;18.61;83.41;97832.99;110239;1245;59741;-73
2023/05/19 06:47:36;;;;;;;9.30;8.20;;;;;;;18.64;82.97;97829.29;110263;1241;59689;-72
2023/05/19 06:50:08;;;;;;;10.80;8.80;;;;;;;18.51;82.33;97830.05;110204;1241;71980;-72
2023/05/19 06:52:38;;;;;;;8.90;7.90;;;;;;;18.42;82.91;97830.63;110196;1243;69784;-72
2023/05/19 06:55:08;;;;;;;10.40;9.00;;;;;;;18.46;82.73;97829.45;110120;1244;69244;-70
2023/05/19 06:57:38;;;;;;;10.10;9.00;;;;;;;18.39;83.91;97825.96;110204;1242;59741;-71
2023/05/19 07:00:11;;;;;;;13.30;10.00;;;;;;;18.02;85.05;97829.84;110229;1241;59732;-72
2023/05/19 07:02:45;;;;;;;10.30;9.30;;;;;;;17.83;85.54;97834.18;110185;1242;71942;-71
2023/05/19 07:05:16;;;;;;;11.90;8.80;;;;;;;17.65;86.67;97830.00;110225;1240;69688;-71
2023/05/19 07:07:49;;;;;;;10.80;9.70;;;;;;;17.54;87.62;97832.55;110177;1241;69446;-71
2023/05/19 07:10:22;;;;;;;12.30;10.10;;;;;;;17.37;88.13;97832.06;110174;1242;59690;-71
2023/05/19 07:12:52;;;;;;;11.00;9.90;;;;;;;17.17;88.93;97835.58;110258;1244;59682;-70
2023/05/19 07:15:24;;;;;;;12.00;10.50;;;;;;;17.06;89.35;97837.20;110196;1242;71939;-70
2023/05/19 07:17:54;;;;;;;9.50;8.50;;;;;;;16.83;91.21;97835.61;110162;1244;69279;-72
2023/05/19 07:20:24;;;;;;;10.60;9.30;;;;;;;16.78;92.92;97834.14;110131;1250;69239;-71
2023/05/19 07:22:55;;;;;;;11.00;9.70;;;;;;;17.04;92.18;97831.77;110177;1241;60173;-70
2023/05/19 07:25:25;;;;;;;11.30;10.10;;;;;;;17.20;92.28;97836.61;110190;1242;59701;-71
2023/05/19 07:27:56;;;;;;;11.60;9.30;;;;;;;17.48;91.37;97839.98;110176;1241;71305;-71
2023/05/19 07:30:27;;;;;;;9.60;8.60;;;;;;;17.72;89.63;97839.91;110191;1242;69838;-71
2023/05/19 07:32:56;;;;;;;11.50;9.40;;;;;;;17.90;88.63;97837.60;110260;1242;67537;-71
2023/05/19 07:35:25;;;;;;;12.70;11.00;;;;;;;17.87;87.28;97840.12;110200;1240;60008;-69
2023/05/19 07:37:55;;;;;;;11.40;9.30;;;;;;;17.59;87.30;97846.29;110229;1241;59695;-69
2023/05/19 07:40:24;;;;;;;12.50;10.00;;;;;;;17.57;88.25;97844.23;110217;1241;71699;-71
2023/05/19 07:42:53;;;;;;;11.50;10.20;;;;;;;17.60;88.12;97843.90;110189;1240;69830;-68
2023/05/19 07:45:22;;;;;;;12.80;10.90;;;;;;;17.60;89.38;97841.23;110227;1246;69315;-68
2023/05/19 07:47:53;;;;;;;11.20;10.10;;;;;;;17.77;88.70;97840.08;110203;1242;59701;-70
2023/05/19 07:50:22;;;;;;;11.00;8.80;;;;;;;17.87;88.24;97839.09;110191;1241;59689;-69
2023/05/19 07:52:51;;;;;;;12.30;11.00;;;;;;;18.18;86.69;97839.80;110195;1242;71968;-69
2023/05/19 07:55:22;;;;;;;13.60;8.70;;;;;;;18.19;86.77;97841.31;110177;1242;69154;-70
2023/05/19 07:57:51;;;;;;;12.20;11.00;;;;;;;18.37;86.28;97840.05;110191;1241;69170;-69
2023/05/19 08:00:20;;;;;;;13.80;11.50;;;;;;;18.52;84.70;97838.41;110196;1241;59691;-68
2023/05/19 08:02:49;;;;;;;12.20;10.10;;;;;;;18.40;84.98;97833.76;110231;1242;59694;-70
2023/05/19 08:05:19;;;;;;;11.40;10.20;;;;;;;18.32;86.52;97835.79;110202;1242;71616;-69
2023/05/19 08:07:48;;;;;;;12.60;11.20;;;;;;;18.90;85.27;97834.25;110257;1240;69091;-68
2023/05/19 08:10:17;;;;;;;;;;;;;;;19.36;82.61;97825.44;110232;1242;69895;-69
2023/05/19 08:12:47;;;;;;;12.30;10.70;;;;;;;19.84;79.70;97827.06;110216;1240;59735;-69
2023/05/19 08:15:16;;;;;;;11.80;9.80;;;;;;;20.17;76.99;97830.23;110237;1242;60097;-69
2023/05/19 08:17:46;;;;;;;9.10;7.60;;;;;;;20.36;77.11;97830.01;110243;1240;71206;-70
2023/05/19 08:20:15;;;;;;;11.40;10.30;;;;;;;20.52;75.32;97829.89;110223;1242;68502;-70
2023/05/19 08:22:44;;;;;;;11.70;10.50;;;;;;;20.49;75.25;97832.00;110218;1242;69562;-71
2023/05/19 08:25:14;;;;;;;10.40;9.30;;;;;;;20.55;73.87;97831.23;110197;1242;59638;-70
2023/05/19 08:27:43;;;;;;;;;;;;;;;20.69;73.22;97824.61;110209;1242;59719;-71
2023/05/19 08:30:13;;;;;;;9.20;8.20;;;;;;;20.85;72.84;97823.89;110199;1242;71962;-69
2023/05/19 08:32:42;;;;;;;9.30;8.20;;;;;;;21.31;73.32;97816.38;110159;1243;69909;-70
2023/05/19 08:35:11;;;;;;;9.40;8.50;;;;;;;21.74;70.48;97814.42;110185;1242;69775;-69
2023/05/19 08:37:40;;;;;;;10.00;9.00;;;;;;;21.69;69.28;97812.16;110224;1240;59759;-69
2023/05/19 08:40:16;;;;;;;8.10;7.30;;;;;;;21.89;66.08;97813.81;110238;1242;59630;-70
2023/05/19 08:42:46;;;;;;;9.00;7.60;;;;;;;22.15;66.40;97814.96;110233;1242;71434;-68
2023/05/19 08:45:15;;;;;;;7.20;6.50;;;;;;;22.61;64.21;97816.80;110195;1242;69637;-68
2023/05/19 08:47:46;;;;;;;7.60;6.90;;;;;;;23.09;63.07;97813.55;110236;1242;69888;-70
2023/05/19 08:50:23;;;;;;;7.00;6.30;;;;;;;23.45;60.85;97811.69;110170;1249;59758;-68
2023/05/19 08:53:01;;;;;;;6.40;5.80;;;;;;;23.72;58.51;97811.71;110200;1241;59699;-68
2023/05/19 08:55:35;;;;;;;7.00;6.30;;;;;;;23.61;58.03;97810.31;110196;1242;71536;-68
2023/05/19 08:58:05;;;;;;;9.60;7.70;;;;;;;23.56;57.75;97809.67;110243;1242;68649;-69
2023/05/19 09:00:35;;;;;;;7.30;6.40;;;;;;;23.53;58.58;97808.50;110206;1241;68990;-68
2023/05/19 09:03:06;;;;;;;7.30;5.90;;;;;;;23.76;59.44;97803.74;110208;1242;59746;-70
2023/05/19 09:05:40;;;;;;;7.30;6.40;;;;;;;24.07;58.37;97808.30;110204;1242;59691;-68
2023/05/19 09:08:08;;;;;;;8.10;6.50;;;;;;;24.01;56.60;97807.52;110274;1242;71560;-67
2023/05/19 09:10:38;;;;;;;8.00;6.80;;;;;;;23.71;55.34;97808.11;110219;1242;69826;-69
2023/05/19 09:13:08;;;;;;;8.80;7.90;;;;;;;23.67;55.81;97805.92;110196;1242;69877;-68
2023/05/19 09:15:40;;;;;;;7.40;6.70;;;;;;;23.37;56.72;97804.50;110185;1241;60024;-68
2023/05/19 09:18:11;;;;;;;6.60;5.90;;;;;;;23.16;57.45;97802.91;110244;1242;59752;-69
2023/05/19 09:20:43;;;;;;;7.80;6.60;;;;;;;23.70;56.18;97800.15;110194;1241;71857;-69
2023/05/19 09:23:14;;;;;;;6.70;5.90;;;;;;;24.51;55.67;97794.43;110217;1242;69810;-70
2023/05/19 09:25:52;;;;;;;10.40;7.80;;;;;;;25.13;53.78;97791.27;110190;1242;69944;-67
2023/05/19 09:28:24;;;;;;;8.10;7.10;;;;;;;24.95;53.24;97792.77;110201;1247;59696;-70
2023/05/19 09:31:07;;;;;;;7.90;7.10;;;;;;;25.24;53.35;97786.09;110215;1242;59721;-69
2023/05/19 09:33:38;;;;;;;9.70;7.70;;;;;;;25.00;53.05;97781.67;110130;1241;70439;-69
2023/05/19 09:36:11;;;;;;;8.80;7.80;;;;;;;23.66;55.92;97780.06;110202;1242;69735;-69
2023/05/19 09:38:41;;;;;;;8.90;7.70;;;;;;;23.11;57.67;97778.48;110194;1242;69377;-69
2023/05/19 09:41:13;;;;;;;7.80;6.60;;;;;;;23.05;57.68;97777.32;110141;1242;59688;-67
2023/05/19 09:43:52;;;;;;;8.40;6.50;;;;;;;23.12;58.73;97776.71;110210;1241;59789;-68
2023/05/19 09:46:27;;;;;;;;;;;;;;;23.16;59.47;97774.77;110208;1244;69794;-68
2023/05/19 09:49:00;;;;;;;8.20;7.10;;;;;;;23.43;59.01;97770.16;110213;1241;69380;-69
2023/05/19 09:51:30;;;;;;;6.30;5.20;;;;;;;23.80;57.99;97769.10;110164;1244;69928;-69
2023/05/19 09:53:59;;;;;;;6.90;6.00;;;;;;;24.31;57.53;97769.98;110202;1242;59769;-68
2023/05/19 09:56:35;;;;;;;;;;;;;;;24.95;54.61;97763.76;110213;1241;59694;-68
2023/05/19 09:59:06;;;;;;;6.40;5.80;;;;;;;24.89;49.03;97760.10;110190;1241;71986;-68
2023/05/19 10:01:39;;;;;;;7.40;6.00;;;;;;;25.48;49.02;97752.85;110166;1242;68268;-68
2023/05/19 10:04:08;;;;;;;5.90;5.30;;;;;;;25.65;47.48;97746.73;110197;1242;69767;-67
2023/05/19 10:06:38;;;;;;;6.80;5.30;;;;;;;26.54;48.64;97747.17;110174;1242;59710;-69
2023/05/19 10:09:07;;;;;;;6.90;6.20;;;;;;;26.59;45.63;97745.23;110188;1242;59710;-68
2023/05/19 10:11:36;;;;;;;7.70;6.00;;;;;;;26.73;46.17;97748.25;110196;1241;71833;-69
2023/05/19 10:14:07;;;;;;;6.20;5.50;;;;;;;27.01;47.06;97749.30;110163;1242;69042;-69
2023/05/19 10:16:37;;;;;;;7.30;6.60;;;;;;;26.50;44.38;97755.64;110189;1242;69213;-69
2023/05/19 10:19:08;;;;;;;6.20;5.60;;;;;;;26.62;44.83;97754.16;110191;1242;59761;-67
2023/05/19 10:21:37;;;;;;;7.60;6.80;;;;;;;26.95;44.88;97751.15;110222;1242;59601;-69
2023/05/19 10:24:06;;;;;;;;;;;;;;;27.07;44.70;97747.11;110187;1241;71364;-69
2023/05/19 10:26:35;;;;;;;7.00;5.60;;;;;;;27.42;44.16;97749.13;110227;1242;69763;-69
2023/05/19 10:29:05;;;;;;;7.40;5.90;;;;;;;26.84;42.35;97745.48;110148;1243;69140;-69
2023/05/19 10:31:35;;;;;;;6.20;5.40;;;;;;;27.16;44.88;97740.05;110176;1240;59722;-69
2023/05/19 10:34:11;;;;;;;12.40;7.80;;;;;;;27.33;42.38;97736.52;110202;1241;59705;-69
2023/05/19 10:36:48;;;;;;;13.90;8.10;;;;;;;27.33;39.48;97731.14;110302;1242;70596;-69
2023/05/19 10:39:31;;;;;;;13.70;8.40;;;;;;;27.45;40.30;97727.40;110193;1242;68313;-68
2023/05/19 10:42:06;;;;;;;6.80;6.00;;;;;;;27.55;41.54;97730.35;110187;1249;69300;-68
2023/05/19 10:44:45;;;;;;;7.80;5.70;;;;;;;27.70;40.72;97731.77;110197;1242;59662;-70
2023/05/19 10:47:22;;;;;;;8.00;6.60;;;;;;;27.86;39.79;97736.41;110257;1241;59634;-69
2023/05/19 10:49:52;;;;;;;6.60;5.90;;;;;;;27.61;38.65;97733.38;110246;1242;71343;-71
2023/05/19 10:52:27;;;;;;;5.90;5.30;;;;;;;27.44;39.54;97733.52;110242;1242;69806;-70
2023/05/19 10:54:57;;;;;;;6.50;5.20;;;;;;;27.36;38.62;97730.23;110227;1242;69640;-69
2023/05/19 10:57:31;;;;;;;6.60;5.90;;;;;;;27.30;39.92;97728.39;110249;1242;59740;-68
2023/05/19 11:00:25;;;;;;;6.60;5.90;;;;;;;26.99;39.73;97726.85;110233;1244;59751;-68
2023/05/19 11:03:22;;;;;;;6.60;6.00;;;;;;;26.86;40.30;97728.21;110253;1242;72355;-68
2023/05/19 11:05:51;;;;;;;6.90;5.90;;;;;;;26.77;40.33;97729.09;110254;1242;68163;-68
2023/05/19 11:08:32;;;;;;;6.70;5.60;;;;;;;26.58;41.21;97733.79;110275;1241;69247;-69
2023/05/19 11:11:16;;;;;;;7.60;6.70;;;;;;;26.40;41.02;97734.98;110206;1242;59706;-68
2023/05/19 11:13:56;;;;;;;7.30;6.60;;;;;;;26.13;41.19;97744.45;110208;1242;59667;-68
2023/05/19 11:16:30;;;;;;;7.40;6.20;;;;;;;25.89;40.88;97754.02;110189;1241;71935;-69
2023/05/19 11:19:00;;;;;;;8.30;7.50;;;;;;;25.32;41.13;97765.66;110201;1241;69252;-68
2023/05/19 11:21:47;;;;;;;10.70;7.10;;;;;;;24.56;43.54;97788.20;110323;1242;69849;-67
2023/05/19 11:24:41;;;;;;;7.80;6.30;;;;;;;23.17;51.88;97803.53;110245;1242;59684;-67
2023/05/19 11:27:16;;;;;;;6.60;5.50;;;;;;;20.50;54.16;97819.81;110254;1241;59677;-68
2023/05/19 11:29:50;;;;;;;7.00;5.90;;;;;;;18.62;59.38;97810.02;110255;1242;71938;-68
2023/05/19 11:32:21;;;;;;;11.80;7.10;;;;;;;17.20;66.42;97800.48;110295;1242;69796;-69
2023/05/19 11:34:51;;;;;;;9.60;7.60;;;;;;;16.24;72.41;97792.73;110266;1240;68512;-68
2023/05/19 11:37:20;;;;;;;10.80;8.30;;;;;;;15.57;76.73;97788.59;110240;1241;59710;-70
2023/05/19 11:39:51;;;;;;;8.00;6.60;;;;;;;15.14;78.65;97787.56;110260;1242;59601;-69
2023/05/19 11:42:20;;;;;;;7.30;6.20;;;;;;;14.94;80.64;97788.42;110201;1240;71992;-69